Thousand Palms, CA

1:08 PM PDT on October 31, 2014 (GMT -0700)
Twentynine Palms Expeditionary Air Field | Change Station
CLOSE
Current Station
Airport
Location: Twentynine Palms,
Elevation: 2054 ft
Nearby Weather Stations
Active Advisory: Wind Advisory

Elev 2054 ft 34.30 °N, 116.16 °W | Updated 12 minutes ago

Clear
Clear
80 °F
Feels Like 80 °F
N
12
Wind Variable Wind from ESE

Today
High -- | Low -- °F
--% Chance of Precip.
Yesterday
High -- | Low -- °F
Precip. -- in
7:03 AM 5:53 PM
First Quarter, 58% visible
Pressure 29.81 in
Visibility 10.0 miles
Clouds Few 12000 ft
Dew Point 35 °F
Humidity 20%
Rainfall 0.00 in
Snow Depth Not available.
UV 5 out of 12
Pollen 2.70 out of 12
Air Quality Not available.
Flu Activity Not available.
METAR KNXP 311956Z 12010KT 10SM FEW120 27/02 A2991 RMK AO2 SLP095 T02670017 $

More Conditions Fewer Conditions

Pressure 29.81 in
Visibility 10.0 miles
Clouds Few 12000 ft
Dew Point 35 °F
Humidity 20%
Rainfall 0.00 in
Snow Depth Not available.
UV 5 out of 12
Pollen 2.70 out of 12
Air Quality Not available.
Flu Activity Not available.
METAR KNXP 311956Z 12010KT 10SM FEW120 27/02 A2991 RMK AO2 SLP095 T02670017 $

More Conditions Fewer Conditions

10-Day Weather Forecast

Almanac

Astronomy

Oct. 31, 2014 Rise Set
Actual Time
Civil Twilight
Nautical Twilight
Astronomical Twilight
Moon
Length of Visible Light
Length of Day
Tomorrow will be .
, % of the Moon is Illuminated

Today's Extremes

State Highs State Lows

Community

WunderPhotos

Upload Photos

1,766,717 photos uploaded!

WunderBlogs® & News

Nearby

Air Quality

  Air Quality AQ Index Pollutant
Not available.

Snow Depth

Station Depth Elevation

Earthquake Activity

City Distance Mag. Time & Date
Minimum magnitude displayed is 2.5.

Coastal Water Temperatures

Place Temperature

Nearby Weather Stations